sensor_id;sensor_type;location;lat;lon;timestamp;pressure;altitude;pressure_sealevel;temperature;humidity
13553;BME280;6847;48.830;9.116;2022-07-05T00:00:50;98176.81;;;21.40;42.43
13553;BME280;6847;48.830;9.116;2022-07-05T00:03:19;98176.59;;;21.33;42.47
13553;BME280;6847;48.830;9.116;2022-07-05T00:05:45;98174.72;;;21.25;42.67
13553;BME280;6847;48.830;9.116;2022-07-05T00:08:15;98149.59;;;21.05;42.73
13553;BME280;6847;48.830;9.116;2022-07-05T00:10:48;98088.22;;;20.60;42.65
13553;BME280;6847;48.830;9.116;2022-07-05T00:13:25;98174.84;;;21.08;42.92
13553;BME280;6847;48.830;9.116;2022-07-05T00:15:52;98174.03;;;21.07;42.96
13553;BME280;6847;48.830;9.116;2022-07-05T00:18:19;98176.22;;;21.01;42.99
13553;BME280;6847;48.830;9.116;2022-07-05T00:20:48;98177.69;;;20.99;43.15
13553;BME280;6847;48.830;9.116;2022-07-05T00:23:15;98171.28;;;20.95;43.10
13553;BME280;6847;48.830;9.116;2022-07-05T00:25:42;98172.06;;;20.95;43.22
13553;BME280;6847;48.830;9.116;2022-07-05T00:28:08;98164.97;;;20.94;43.24
13553;BME280;6847;48.830;9.116;2022-07-05T00:30:37;98147.09;;;20.80;43.25
13553;BME280;6847;48.830;9.116;2022-07-05T00:33:04;98165.63;;;20.91;43.51
13553;BME280;6847;48.830;9.116;2022-07-05T00:35:31;98166.28;;;20.88;43.36
13553;BME280;6847;48.830;9.116;2022-07-05T00:38:00;98166.50;;;20.83;43.57
13553;BME280;6847;48.830;9.116;2022-07-05T00:40:26;98135.66;;;20.57;43.55
13553;BME280;6847;48.830;9.116;2022-07-05T00:42:53;98164.19;;;20.73;43.86
13553;BME280;6847;48.830;9.116;2022-07-05T00:45:20;98157.06;;;20.72;43.84
13553;BME280;6847;48.830;9.116;2022-07-05T00:47:48;98166.44;;;20.71;43.89
13553;BME280;6847;48.830;9.116;2022-07-05T00:50:15;98127.94;;;20.50;43.92
13553;BME280;6847;48.830;9.116;2022-07-05T00:52:42;98151.00;;;20.58;44.04
13553;BME280;6847;48.830;9.116;2022-07-05T00:55:12;98163.78;;;20.62;44.41
13553;BME280;6847;48.830;9.116;2022-07-05T00:57:39;98167.06;;;20.56;44.37
13553;BME280;6847;48.830;9.116;2022-07-05T01:00:07;98169.81;;;20.56;44.43
13553;BME280;6847;48.830;9.116;2022-07-05T01:02:33;98169.00;;;20.55;44.50
13553;BME280;6847;48.830;9.116;2022-07-05T01:05:06;98172.56;;;20.56;44.44
13553;BME280;6847;48.830;9.116;2022-07-05T01:07:34;98182.28;;;20.53;44.45
13553;BME280;6847;48.830;9.116;2022-07-05T01:10:01;98178.25;;;20.51;44.60
13553;BME280;6847;48.830;9.116;2022-07-05T01:12:28;98178.00;;;20.44;44.79
13553;BME280;6847;48.830;9.116;2022-07-05T01:14:55;98173.81;;;20.38;44.61
13553;BME280;6847;48.830;9.116;2022-07-05T01:17:23;98109.31;;;19.85;44.82
13553;BME280;6847;48.830;9.116;2022-07-05T01:19:50;98176.34;;;20.22;45.11
13553;BME280;6847;48.830;9.116;2022-07-05T01:22:19;98175.09;;;20.11;45.36
13553;BME280;6847;48.830;9.116;2022-07-05T01:24:49;98180.66;;;20.02;45.61
13553;BME280;6847;48.830;9.116;2022-07-05T01:30:22;98174.13;;;19.86;45.72
13553;BME280;6847;48.830;9.116;2022-07-05T01:32:50;98179.41;;;19.91;45.58
13553;BME280;6847;48.830;9.116;2022-07-05T01:35:18;98185.38;;;19.93;45.79
13553;BME280;6847;48.830;9.116;2022-07-05T01:37:46;98175.19;;;19.93;45.71
13553;BME280;6847;48.830;9.116;2022-07-05T01:40:16;98187.00;;;19.94;45.97
13553;BME280;6847;48.830;9.116;2022-07-05T01:42:43;98176.81;;;19.94;45.46
13553;BME280;6847;48.830;9.116;2022-07-05T01:45:09;98138.66;;;19.64;45.88
13553;BME280;6847;48.830;9.116;2022-07-05T01:47:41;98161.69;;;19.80;45.61
13553;BME280;6847;48.830;9.116;2022-07-05T01:50:15;98171.16;;;19.91;46.05
13553;BME280;6847;48.830;9.116;2022-07-05T01:52:45;98133.81;;;19.61;46.17
13553;BME280;6847;48.830;9.116;2022-07-05T01:55:15;97993.66;;;18.72;46.16
13553;BME280;6847;48.830;9.116;2022-07-05T01:57:44;98182.84;;;19.88;45.95
13553;BME280;6847;48.830;9.116;2022-07-05T02:00:12;98176.38;;;19.84;45.98
13553;BME280;6847;48.830;9.116;2022-07-05T02:02:40;98175.13;;;19.73;46.41
13553;BME280;6847;48.830;9.116;2022-07-05T02:05:07;98183.88;;;19.75;46.28
13553;BME280;6847;48.830;9.116;2022-07-05T02:07:35;98146.78;;;19.51;46.38
13553;BME280;6847;48.830;9.116;2022-07-05T02:10:02;98045.28;;;18.88;46.65
13553;BME280;6847;48.830;9.116;2022-07-05T02:12:33;98179.88;;;19.64;46.74
13553;BME280;6847;48.830;9.116;2022-07-05T02:15:00;98175.34;;;19.59;46.75
13553;BME280;6847;48.830;9.116;2022-07-05T02:17:29;98180.53;;;19.52;46.54
13553;BME280;6847;48.830;9.116;2022-07-05T02:19:56;98180.41;;;19.48;46.93
13553;BME280;6847;48.830;9.116;2022-07-05T02:22:28;97949.94;;;17.86;46.66
13553;BME280;6847;48.830;9.116;2022-07-05T02:24:55;98183.00;;;19.36;47.15
13553;BME280;6847;48.830;9.116;2022-07-05T02:27:22;98174.47;;;19.29;47.33
13553;BME280;6847;48.830;9.116;2022-07-05T02:29:53;98171.25;;;19.27;47.27
13553;BME280;6847;48.830;9.116;2022-07-05T02:32:20;98176.25;;;19.25;47.13
13553;BME280;6847;48.830;9.116;2022-07-05T02:34:47;98171.41;;;19.22;47.22
13553;BME280;6847;48.830;9.116;2022-07-05T02:37:17;98164.63;;;19.11;47.31
13553;BME280;6847;48.830;9.116;2022-07-05T02:39:44;98174.31;;;19.17;47.23
13553;BME280;6847;48.830;9.116;2022-07-05T02:42:12;98175.63;;;19.11;47.52
13553;BME280;6847;48.830;9.116;2022-07-05T02:44:42;98162.41;;;18.96;47.56
13553;BME280;6847;48.830;9.116;2022-07-05T02:47:13;98125.50;;;18.67;47.90
13553;BME280;6847;48.830;9.116;2022-07-05T02:49:40;98177.75;;;18.97;47.67
13553;BME280;6847;48.830;9.116;2022-07-05T02:52:07;98182.75;;;18.95;47.65
13553;BME280;6847;48.830;9.116;2022-07-05T02:54:34;98180.19;;;18.90;47.81
13553;BME280;6847;48.830;9.116;2022-07-05T02:57:01;98189.06;;;18.87;47.76
13553;BME280;6847;48.830;9.116;2022-07-05T03:03:21;98189.38;;;18.76;47.90
13553;BME280;6847;48.830;9.116;2022-07-05T03:05:48;98188.09;;;18.74;48.28
13553;BME280;6847;48.830;9.116;2022-07-05T03:08:15;98188.41;;;18.72;48.04
13553;BME280;6847;48.830;9.116;2022-07-05T03:10:41;98187.59;;;18.72;48.04
13553;BME280;6847;48.830;9.116;2022-07-05T03:13:08;98199.69;;;18.71;48.24
13553;BME280;6847;48.830;9.116;2022-07-05T03:15:35;98188.41;;;18.72;48.40
13553;BME280;6847;48.830;9.116;2022-07-05T03:18:04;98194.69;;;18.73;48.35
13553;BME280;6847;48.830;9.116;2022-07-05T03:20:32;98198.25;;;18.73;48.04
13553;BME280;6847;48.830;9.116;2022-07-05T03:22:59;98202.13;;;18.72;48.08
13553;BME280;6847;48.830;9.116;2022-07-05T03:25:26;98197.94;;;18.66;48.63
13553;BME280;6847;48.830;9.116;2022-07-05T03:27:53;98202.13;;;18.72;48.23
13553;BME280;6847;48.830;9.116;2022-07-05T03:30:19;98197.13;;;18.66;48.44
13553;BME280;6847;48.830;9.116;2022-07-05T03:32:46;98138.22;;;18.29;48.58
13553;BME280;6847;48.830;9.116;2022-07-05T03:35:13;98202.78;;;18.69;48.45
13553;BME280;6847;48.830;9.116;2022-07-05T03:37:54;98200.69;;;18.66;48.79
13553;BME280;6847;48.830;9.116;2022-07-05T03:40:20;98204.53;;;18.65;48.87
13553;BME280;6847;48.830;9.116;2022-07-05T03:42:47;98149.31;;;18.32;48.65
13553;BME280;6847;48.830;9.116;2022-07-05T03:45:14;98195.19;;;18.58;48.78
13553;BME280;6847;48.830;9.116;2022-07-05T03:47:40;98205.03;;;18.67;48.70
13553;BME280;6847;48.830;9.116;2022-07-05T03:50:07;98140.16;;;18.20;48.66
13553;BME280;6847;48.830;9.116;2022-07-05T03:52:34;98215.38;;;18.70;49.11
13553;BME280;6847;48.830;9.116;2022-07-05T03:55:03;98102.88;;;18.01;48.98
13553;BME280;6847;48.830;9.116;2022-07-05T03:57:29;98217.94;;;18.75;48.89
13553;BME280;6847;48.830;9.116;2022-07-05T03:59:56;98232.94;;;18.78;49.08
13553;BME280;6847;48.830;9.116;2022-07-05T04:02:23;98230.84;;;18.83;49.02
13553;BME280;6847;48.830;9.116;2022-07-05T04:05:01;98231.81;;;18.88;49.22
13553;BME280;6847;48.830;9.116;2022-07-05T04:07:27;98242.31;;;18.94;48.99
13553;BME280;6847;48.830;9.116;2022-07-05T04:09:54;98234.56;;;18.88;49.15
13553;BME280;6847;48.830;9.116;2022-07-05T04:12:22;98246.84;;;18.99;49.03
13553;BME280;6847;48.830;9.116;2022-07-05T04:14:48;98186.66;;;18.59;49.02
13553;BME280;6847;48.830;9.116;2022-07-05T04:17:15;98257.47;;;19.00;48.93
13553;BME280;6847;48.830;9.116;2022-07-05T04:19:41;98256.03;;;19.03;48.99
13553;BME280;6847;48.830;9.116;2022-07-05T04:22:08;98228.75;;;18.89;49.11
13553;BME280;6847;48.830;9.116;2022-07-05T04:24:35;98224.22;;;18.84;49.54
13553;BME280;6847;48.830;9.116;2022-07-05T04:27:16;98255.88;;;19.08;49.39
13553;BME280;6847;48.830;9.116;2022-07-05T04:29:44;98244.91;;;19.08;49.14
13553;BME280;6847;48.830;9.116;2022-07-05T04:32:13;98253.94;;;19.17;49.19
13553;BME280;6847;48.830;9.116;2022-07-05T04:34:39;98255.38;;;19.23;49.11
13553;BME280;6847;48.830;9.116;2022-07-05T04:37:06;98266.50;;;19.27;49.48
13553;BME280;6847;48.830;9.116;2022-07-05T04:39:36;98262.47;;;19.33;49.44
13553;BME280;6847;48.830;9.116;2022-07-05T04:42:08;98256.13;;;19.41;49.28
13553;BME280;6847;48.830;9.116;2022-07-05T04:44:38;98258.72;;;19.46;49.42
13553;BME280;6847;48.830;9.116;2022-07-05T04:47:27;98261.47;;;19.54;49.44
13553;BME280;6847;48.830;9.116;2022-07-05T04:49:55;98266.47;;;19.61;49.55
13553;BME280;6847;48.830;9.116;2022-07-05T04:52:23;98260.50;;;19.68;49.23
13553;BME280;6847;48.830;9.116;2022-07-05T04:54:50;98272.91;;;19.74;49.14
13553;BME280;6847;48.830;9.116;2022-07-05T04:57:17;98270.44;;;19.81;49.32
13553;BME280;6847;48.830;9.116;2022-07-05T04:59:43;98272.22;;;19.85;49.04
13553;BME280;6847;48.830;9.116;2022-07-05T05:02:11;98272.38;;;19.89;49.11
13553;BME280;6847;48.830;9.116;2022-07-05T05:04:39;98278.97;;;19.97;49.19
13553;BME280;6847;48.830;9.116;2022-07-05T05:07:07;98258.47;;;19.94;49.29
13553;BME280;6847;48.830;9.116;2022-07-05T05:12:51;98267.25;;;20.17;49.38
13553;BME280;6847;48.830;9.116;2022-07-05T05:15:17;98232.38;;;20.00;49.00
13553;BME280;6847;48.830;9.116;2022-07-05T05:17:44;98273.50;;;20.35;49.16
13553;BME280;6847;48.830;9.116;2022-07-05T05:20:16;98191.84;;;19.97;49.00
13553;BME280;6847;48.830;9.116;2022-07-05T05:22:43;98225.28;;;20.28;49.22
13553;BME280;6847;48.830;9.116;2022-07-05T05:25:10;98216.72;;;20.30;49.17
13553;BME280;6847;48.830;9.116;2022-07-05T05:27:41;98263.22;;;20.73;48.97
13553;BME280;6847;48.830;9.116;2022-07-05T05:30:09;98275.66;;;20.79;48.78
13553;BME280;6847;48.830;9.116;2022-07-05T05:32:36;98269.25;;;20.87;49.11
13553;BME280;6847;48.830;9.116;2022-07-05T05:35:05;98272.75;;;20.96;48.94
13553;BME280;6847;48.830;9.116;2022-07-05T05:37:50;98262.69;;;21.00;48.84
13553;BME280;6847;48.830;9.116;2022-07-05T05:40:17;98279.75;;;21.15;48.91
13553;BME280;6847;48.830;9.116;2022-07-05T05:42:46;98276.16;;;21.23;48.92
13553;BME280;6847;48.830;9.116;2022-07-05T05:45:13;98238.41;;;21.02;48.77
13553;BME280;6847;48.830;9.116;2022-07-05T05:47:46;98276.66;;;21.37;48.85
13553;BME280;6847;48.830;9.116;2022-07-05T05:50:13;98270.72;;;21.47;48.60
13553;BME280;6847;48.830;9.116;2022-07-05T05:52:40;98285.53;;;21.55;48.55
13553;BME280;6847;48.830;9.116;2022-07-05T05:55:08;98236.94;;;21.38;48.61
13553;BME280;6847;48.830;9.116;2022-07-05T05:57:35;98283.44;;;21.72;48.53
13553;BME280;6847;48.830;9.116;2022-07-05T06:00:04;98242.28;;;21.55;48.52
13553;BME280;6847;48.830;9.116;2022-07-05T06:02:33;98246.91;;;21.63;48.33
13553;BME280;6847;48.830;9.116;2022-07-05T06:04:59;98115.69;;;20.81;47.96
13553;BME280;6847;48.830;9.116;2022-07-05T06:07:26;98277.97;;;21.97;48.18
13553;BME280;6847;48.830;9.116;2022-07-05T06:09:52;98265.31;;;21.96;48.15
13553;BME280;6847;48.830;9.116;2022-07-05T06:12:20;98290.22;;;22.20;48.07
13553;BME280;6847;48.830;9.116;2022-07-05T06:14:46;98298.72;;;22.27;47.85
13553;BME280;6847;48.830;9.116;2022-07-05T06:17:13;98295.03;;;22.35;47.93
13553;BME280;6847;48.830;9.116;2022-07-05T06:19:41;98261.34;;;22.18;47.82
13553;BME280;6847;48.830;9.116;2022-07-05T06:22:08;98273.69;;;22.32;47.60
13553;BME280;6847;48.830;9.116;2022-07-05T06:24:34;98270.66;;;22.37;47.57
13553;BME280;6847;48.830;9.116;2022-07-05T06:27:01;98091.63;;;21.35;47.19
13553;BME280;6847;48.830;9.116;2022-07-05T06:29:29;98302.50;;;22.71;47.47
13553;BME280;6847;48.830;9.116;2022-07-05T06:31:55;98296.19;;;22.71;47.33
13553;BME280;6847;48.830;9.116;2022-07-05T06:34:24;98306.31;;;22.91;47.30
13553;BME280;6847;48.830;9.116;2022-07-05T06:36:51;98303.50;;;23.03;46.99
13553;BME280;6847;48.830;9.116;2022-07-05T06:39:17;98310.16;;;23.14;46.86
13553;BME280;6847;48.830;9.116;2022-07-05T06:41:44;98318.53;;;23.30;46.72
13553;BME280;6847;48.830;9.116;2022-07-05T06:44:10;98320.88;;;23.44;46.57
13553;BME280;6847;48.830;9.116;2022-07-05T06:46:38;98315.34;;;23.56;46.61
13553;BME280;6847;48.830;9.116;2022-07-05T06:49:05;98320.38;;;23.66;46.48
13553;BME280;6847;48.830;9.116;2022-07-05T06:51:31;98318.94;;;23.72;46.36
13553;BME280;6847;48.830;9.116;2022-07-05T06:53:58;98235.34;;;23.19;46.31
13553;BME280;6847;48.830;9.116;2022-07-05T06:56:30;98333.88;;;23.83;46.26
13553;BME280;6847;48.830;9.116;2022-07-05T06:58:57;98327.03;;;23.93;46.20
13553;BME280;6847;48.830;9.116;2022-07-05T07:01:23;98321.31;;;24.02;46.00
13553;BME280;6847;48.830;9.116;2022-07-05T07:03:51;98316.00;;;24.09;45.78
13553;BME280;6847;48.830;9.116;2022-07-05T07:06:19;98309.53;;;24.20;45.78
13553;BME280;6847;48.830;9.116;2022-07-05T07:08:46;98300.22;;;24.25;45.63
13553;BME280;6847;48.830;9.116;2022-07-05T07:11:30;98336.00;;;24.49;45.48
13553;BME280;6847;48.830;9.116;2022-07-05T07:13:57;98319.41;;;24.49;45.29
13553;BME280;6847;48.830;9.116;2022-07-05T07:16:24;98331.28;;;24.65;45.32
13553;BME280;6847;48.830;9.116;2022-07-05T07:18:54;98330.72;;;24.76;45.17
13553;BME280;6847;48.830;9.116;2022-07-05T07:21:23;98329.44;;;24.89;45.01
13553;BME280;6847;48.830;9.116;2022-07-05T07:23:50;98338.13;;;25.03;45.05
13553;BME280;6847;48.830;9.116;2022-07-05T07:26:17;98328.78;;;25.11;44.82
13553;BME280;6847;48.830;9.116;2022-07-05T07:28:43;98329.53;;;25.27;44.65
13553;BME280;6847;48.830;9.116;2022-07-05T07:31:10;98330.16;;;25.36;44.61
13553;BME280;6847;48.830;9.116;2022-07-05T07:33:37;98338.28;;;25.49;44.50
13553;BME280;6847;48.830;9.116;2022-07-05T07:39:25;98335.56;;;25.68;44.29
13553;BME280;6847;48.830;9.116;2022-07-05T07:41:52;98331.75;;;25.76;44.26
13553;BME280;6847;48.830;9.116;2022-07-05T07:44:19;98340.78;;;25.92;44.27
13553;BME280;6847;48.830;9.116;2022-07-05T07:46:46;98339.75;;;26.00;44.06
13553;BME280;6847;48.830;9.116;2022-07-05T07:49:13;98345.25;;;26.20;43.77
13553;BME280;6847;48.830;9.116;2022-07-05T07:51:40;98348.63;;;26.29;43.80
13553;BME280;6847;48.830;9.116;2022-07-05T07:54:07;98359.00;;;26.32;43.54
13553;BME280;6847;48.830;9.116;2022-07-05T07:56:34;98348.81;;;26.39;43.45
13553;BME280;6847;48.830;9.116;2022-07-05T07:59:02;98352.94;;;26.49;43.48
13553;BME280;6847;48.830;9.116;2022-07-05T08:01:28;98357.00;;;26.55;43.37
13553;BME280;6847;48.830;9.116;2022-07-05T08:03:56;98354.78;;;26.64;43.35
13553;BME280;6847;48.830;9.116;2022-07-05T08:06:23;98332.88;;;26.59;43.10
13553;BME280;6847;48.830;9.116;2022-07-05T08:08:51;98351.78;;;26.76;42.70
13553;BME280;6847;48.830;9.116;2022-07-05T08:11:18;98356.28;;;26.84;42.78
13553;BME280;6847;48.830;9.116;2022-07-05T08:13:49;98352.53;;;26.96;42.58
13553;BME280;6847;48.830;9.116;2022-07-05T08:16:15;98352.69;;;27.07;42.32
13553;BME280;6847;48.830;9.116;2022-07-05T08:18:42;98354.81;;;27.17;42.45
13553;BME280;6847;48.830;9.116;2022-07-05T08:21:26;98351.84;;;27.33;42.26
13553;BME280;6847;48.830;9.116;2022-07-05T08:24:08;98339.28;;;27.42;41.87
13553;BME280;6847;48.830;9.116;2022-07-05T08:26:38;98349.09;;;27.62;42.03
13553;BME280;6847;48.830;9.116;2022-07-05T08:29:10;98354.84;;;27.77;41.78
13553;BME280;6847;48.830;9.116;2022-07-05T08:31:39;98344.22;;;27.86;41.42
13553;BME280;6847;48.830;9.116;2022-07-05T08:34:06;98353.63;;;28.11;41.21
13553;BME280;6847;48.830;9.116;2022-07-05T08:36:33;98351.44;;;28.27;41.16
13553;BME280;6847;48.830;9.116;2022-07-05T08:38:59;98351.78;;;28.66;41.04
13553;BME280;6847;48.830;9.116;2022-07-05T08:41:26;98349.28;;;29.67;40.12
13553;BME280;6847;48.830;9.116;2022-07-05T08:43:53;98358.16;;;31.61;37.36
13553;BME280;6847;48.830;9.116;2022-07-05T08:46:24;98326.38;;;33.48;35.01
13553;BME280;6847;48.830;9.116;2022-07-05T08:48:58;98363.16;;;35.65;32.71
13553;BME280;6847;48.830;9.116;2022-07-05T08:51:27;98361.66;;;37.33;30.97
13553;BME280;6847;48.830;9.116;2022-07-05T08:53:54;98365.47;;;38.64;29.85
13553;BME280;6847;48.830;9.116;2022-07-05T08:56:24;98231.97;;;38.78;29.26
13553;BME280;6847;48.830;9.116;2022-07-05T08:58:51;98379.88;;;40.69;29.02
13553;BME280;6847;48.830;9.116;2022-07-05T09:01:18;98370.06;;;41.47;27.92
13553;BME280;6847;48.830;9.116;2022-07-05T09:03:48;98378.28;;;41.99;27.59
13553;BME280;6847;48.830;9.116;2022-07-05T09:06:16;98384.63;;;42.45;27.80
13553;BME280;6847;48.830;9.116;2022-07-05T09:08:44;98391.84;;;42.98;27.07
13553;BME280;6847;48.830;9.116;2022-07-05T09:11:13;98307.47;;;42.76;26.93
13553;BME280;6847;48.830;9.116;2022-07-05T09:13:41;98389.66;;;43.40;26.90
13553;BME280;6847;48.830;9.116;2022-07-05T09:16:08;98380.97;;;43.59;26.33
13553;BME280;6847;48.830;9.116;2022-07-05T09:18:43;98390.97;;;43.78;26.17
13553;BME280;6847;48.830;9.116;2022-07-05T09:21:18;98394.34;;;44.06;25.88
13553;BME280;6847;48.830;9.116;2022-07-05T09:23:53;98388.22;;;44.27;25.61
13553;BME280;6847;48.830;9.116;2022-07-05T09:26:21;98387.84;;;44.20;25.37
13553;BME280;6847;48.830;9.116;2022-07-05T09:28:54;98378.28;;;44.08;25.34
13553;BME280;6847;48.830;9.116;2022-07-05T09:31:27;98390.59;;;44.14;25.10
13553;BME280;6847;48.830;9.116;2022-07-05T09:33:58;98396.50;;;44.40;24.69
13553;BME280;6847;48.830;9.116;2022-07-05T09:39:39;98393.47;;;44.44;24.29
13553;BME280;6847;48.830;9.116;2022-07-05T09:42:14;98396.50;;;44.55;23.96
13553;BME280;6847;48.830;9.116;2022-07-05T09:49:57;98402.22;;;44.55;23.31
13553;BME280;6847;48.830;9.116;2022-07-05T09:52:29;98398.22;;;44.67;23.38
13553;BME280;6847;48.830;9.116;2022-07-05T09:55:02;98405.50;;;44.68;23.03
13553;BME280;6847;48.830;9.116;2022-07-05T09:57:29;98400.59;;;44.83;22.81
13553;BME280;6847;48.830;9.116;2022-07-05T09:59:58;98394.88;;;44.83;22.47
13553;BME280;6847;48.830;9.116;2022-07-05T10:02:35;98386.44;;;44.74;22.40
13553;BME280;6847;48.830;9.116;2022-07-05T10:05:13;98403.88;;;44.47;22.64
13553;BME280;6847;48.830;9.116;2022-07-05T10:07:42;98395.72;;;44.40;22.57
13553;BME280;6847;48.830;9.116;2022-07-05T10:10:12;98396.78;;;44.27;22.32
13553;BME280;6847;48.830;9.116;2022-07-05T10:12:40;98386.47;;;44.15;22.10
13553;BME280;6847;48.830;9.116;2022-07-05T10:15:09;98390.38;;;44.33;21.91
13553;BME280;6847;48.830;9.116;2022-07-05T10:17:39;98391.75;;;44.52;21.73
13553;BME280;6847;48.830;9.116;2022-07-05T10:20:12;98393.09;;;44.71;21.30
13553;BME280;6847;48.830;9.116;2022-07-05T10:22:43;98397.25;;;44.70;21.24
13553;BME280;6847;48.830;9.116;2022-07-05T10:25:13;98402.38;;;44.66;21.45
13553;BME280;6847;48.830;9.116;2022-07-05T10:27:42;98391.31;;;44.88;20.68
13553;BME280;6847;48.830;9.116;2022-07-05T10:30:11;98395.09;;;45.15;20.46
13553;BME280;6847;48.830;9.116;2022-07-05T10:32:39;98397.50;;;45.22;20.59
13553;BME280;6847;48.830;9.116;2022-07-05T10:35:07;98392.63;;;45.28;20.71
13553;BME280;6847;48.830;9.116;2022-07-05T10:37:34;98402.66;;;45.18;20.37
13553;BME280;6847;48.830;9.116;2022-07-05T10:40:03;98399.78;;;45.18;20.03
13553;BME280;6847;48.830;9.116;2022-07-05T10:42:38;98377.13;;;44.79;20.23
13553;BME280;6847;48.830;9.116;2022-07-05T10:45:38;98360.25;;;44.32;20.46
13553;BME280;6847;48.830;9.116;2022-07-05T10:48:18;98378.16;;;43.88;20.65
13553;BME280;6847;48.830;9.116;2022-07-05T10:51:00;98385.03;;;43.67;20.44
13553;BME280;6847;48.830;9.116;2022-07-05T10:54:02;98374.50;;;42.87;20.97
13553;BME280;6847;48.830;9.116;2022-07-05T10:56:29;98375.75;;;41.74;21.55
13553;BME280;6847;48.830;9.116;2022-07-05T10:59:06;98367.25;;;41.65;21.60
13553;BME280;6847;48.830;9.116;2022-07-05T11:01:36;98376.63;;;42.26;20.77
13553;BME280;6847;48.830;9.116;2022-07-05T11:04:25;98382.66;;;42.61;20.27
13553;BME280;6847;48.830;9.116;2022-07-05T11:06:55;98382.44;;;43.06;20.03
13553;BME280;6847;48.830;9.116;2022-07-05T11:09:28;98380.81;;;43.38;19.64
13553;BME280;6847;48.830;9.116;2022-07-05T11:12:08;98372.19;;;43.47;19.70
13553;BME280;6847;48.830;9.116;2022-07-05T11:14:51;98385.91;;;43.34;19.88
13553;BME280;6847;48.830;9.116;2022-07-05T11:17:23;98388.69;;;43.43;19.76
13553;BME280;6847;48.830;9.116;2022-07-05T11:20:06;98383.59;;;43.47;19.48
13553;BME280;6847;48.830;9.116;2022-07-05T11:22:35;98382.28;;;43.34;19.71
13553;BME280;6847;48.830;9.116;2022-07-05T11:25:03;98385.72;;;43.38;19.48
13553;BME280;6847;48.830;9.116;2022-07-05T11:27:31;98361.03;;;43.11;19.62
13553;BME280;6847;48.830;9.116;2022-07-05T11:30:01;98395.50;;;43.22;19.74
13553;BME280;6847;48.830;9.116;2022-07-05T11:32:36;98391.38;;;43.23;19.67
13553;BME280;6847;48.830;9.116;2022-07-05T11:35:13;98388.63;;;43.05;19.98
13553;BME280;6847;48.830;9.116;2022-07-05T11:37:57;98385.72;;;43.14;19.72
13553;BME280;6847;48.830;9.116;2022-07-05T11:40:37;98375.16;;;43.05;19.59
13553;BME280;6847;48.830;9.116;2022-07-05T11:43:07;98385.69;;;42.90;19.85
13553;BME280;6847;48.830;9.116;2022-07-05T11:45:36;98355.03;;;42.52;19.78
13553;BME280;6847;48.830;9.116;2022-07-05T11:48:04;98370.22;;;41.89;20.47
13553;BME280;6847;48.830;9.116;2022-07-05T11:50:35;98360.28;;;41.20;20.52
13553;BME280;6847;48.830;9.116;2022-07-05T11:53:04;98361.50;;;41.10;20.71
13553;BME280;6847;48.830;9.116;2022-07-05T11:55:32;98321.03;;;40.70;20.83
13553;BME280;6847;48.830;9.116;2022-07-05T11:58:09;98276.72;;;40.23;21.02
13553;BME280;6847;48.830;9.116;2022-07-05T12:00:38;98349.34;;;40.51;21.11
13553;BME280;6847;48.830;9.116;2022-07-05T12:03:11;98352.47;;;40.35;21.07
13553;BME280;6847;48.830;9.116;2022-07-05T12:05:40;98346.63;;;40.17;21.34
13553;BME280;6847;48.830;9.116;2022-07-05T12:08:09;98345.63;;;39.80;21.27
13553;BME280;6847;48.830;9.116;2022-07-05T12:10:36;98351.28;;;39.58;21.75
13553;BME280;6847;48.830;9.116;2022-07-05T12:13:20;98343.22;;;39.35;21.89
13553;BME280;6847;48.830;9.116;2022-07-05T12:16:01;98348.59;;;39.20;21.72
13553;BME280;6847;48.830;9.116;2022-07-05T12:18:29;98338.94;;;38.83;21.97
13553;BME280;6847;48.830;9.116;2022-07-05T12:20:57;98337.75;;;38.59;22.04
13553;BME280;6847;48.830;9.116;2022-07-05T12:23:27;98342.25;;;38.43;22.15
13553;BME280;6847;48.830;9.116;2022-07-05T12:25:54;98340.81;;;38.39;22.56
13553;BME280;6847;48.830;9.116;2022-07-05T12:28:25;98332.97;;;38.43;22.33
13553;BME280;6847;48.830;9.116;2022-07-05T12:30:54;98336.59;;;38.43;21.82
13553;BME280;6847;48.830;9.116;2022-07-05T12:33:23;98335.00;;;38.42;21.79
13553;BME280;6847;48.830;9.116;2022-07-05T12:35:50;98323.25;;;38.57;22.29
13553;BME280;6847;48.830;9.116;2022-07-05T12:38:18;98330.38;;;38.61;21.93
13553;BME280;6847;48.830;9.116;2022-07-05T12:40:47;98332.28;;;38.77;21.71
13553;BME280;6847;48.830;9.116;2022-07-05T12:43:18;98330.44;;;38.83;21.65
13553;BME280;6847;48.830;9.116;2022-07-05T12:46:03;98327.25;;;38.94;22.43
13553;BME280;6847;48.830;9.116;2022-07-05T12:48:34;98319.81;;;38.87;22.01
13553;BME280;6847;48.830;9.116;2022-07-05T12:51:02;98305.69;;;38.74;22.06
13553;BME280;6847;48.830;9.116;2022-07-05T12:53:32;98325.59;;;38.96;21.72
13553;BME280;6847;48.830;9.116;2022-07-05T12:56:23;98323.19;;;39.07;21.97
13553;BME280;6847;48.830;9.116;2022-07-05T12:59:11;98315.53;;;39.39;21.67
13553;BME280;6847;48.830;9.116;2022-07-05T13:01:41;98329.53;;;39.77;21.09
13553;BME280;6847;48.830;9.116;2022-07-05T13:04:09;98328.75;;;40.29;21.02
13553;BME280;6847;48.830;9.116;2022-07-05T13:06:50;98335.19;;;40.60;20.75
13553;BME280;6847;48.830;9.116;2022-07-05T13:09:33;98328.47;;;40.85;20.67
13553;BME280;6847;48.830;9.116;2022-07-05T13:12:08;98326.50;;;41.13;20.57
13553;BME280;6847;48.830;9.116;2022-07-05T13:14:37;98335.31;;;41.33;20.20
13553;BME280;6847;48.830;9.116;2022-07-05T13:17:07;98333.78;;;41.60;20.29
13553;BME280;6847;48.830;9.116;2022-07-05T13:19:38;98335.63;;;41.81;19.90
13553;BME280;6847;48.830;9.116;2022-07-05T13:22:08;98328.50;;;41.86;19.62
13553;BME280;6847;48.830;9.116;2022-07-05T13:24:37;98338.75;;;41.83;19.78
13553;BME280;6847;48.830;9.116;2022-07-05T13:27:18;98330.25;;;41.74;19.82
13553;BME280;6847;48.830;9.116;2022-07-05T13:29:46;98330.56;;;41.85;19.62
13553;BME280;6847;48.830;9.116;2022-07-05T13:32:19;98331.16;;;42.07;20.05
13553;BME280;6847;48.830;9.116;2022-07-05T13:34:50;98310.63;;;41.85;19.86
13553;BME280;6847;48.830;9.116;2022-07-05T13:37:17;98319.06;;;41.70;19.95
13553;BME280;6847;48.830;9.116;2022-07-05T13:39:46;98327.72;;;41.85;19.48
13553;BME280;6847;48.830;9.116;2022-07-05T13:42:13;98326.75;;;41.88;20.13
13553;BME280;6847;48.830;9.116;2022-07-05T13:44:44;98323.31;;;41.66;19.68